Sebasco Estates, Maine
Current Conditions -  °F | °C
As of 8:53 AM on Thursday 27 Nov 2014 (Local Time) from KIWI Reporting Station
Clear Clear  
Wind Chill: 23°   Ceiling: Unl
Heat Index: 31°   Visibility: 10mi
Dew Point: 25°   Wind: 8mph
Humidity: 79%   Direction: 340°NNW
Pressure: 29.85"   Gusts: NA
Location:  43.77°N, 69.86°W
Report Text: KIWI 271353Z AUTO 34007KT 300V030 10SM CLR M01/M04 A2985 RMK AO2 SLP110 T10061039
Loading
Personal Weather Stations






























Interactive Weather Map New forecast layout! Learn more

10-Day Weather Forecast

Advertisements
Track Severe Weather on mobile